Bohmte-Bad Essen Airport


Codes: EDXD/
Name: Bohmte-Bad Essen Airport
City: Bohmte
Country: Germany
Elevation: 148 ft.

Photos at Bohmte-Bad Essen Airport


   Photos courtesy of SpottingLog. You can add your own sightings and photos by signing up for a free trial today.



No photos found.

Weather at Bohmte-Bad Essen Airport


Time (UTC)DescriptionTempratureWindCloud coverageVisibilityPressureHumidity
26-Jun-2024 00:00Clear Sky18°C4 mph, NE0%10000m1015hPa82%
26-Jun-2024 03:00Clear Sky16°C7 mph, NE0%10000m1014hPa86%
26-Jun-2024 06:00Clear Sky19°C7 mph, NE2%10000m1013hPa80%
26-Jun-2024 09:00Scattered Clouds24°C11 mph, E35%10000m1012hPa67%
26-Jun-2024 12:00Few Clouds27°C11 mph, E18%10000m1012hPa62%
26-Jun-2024 15:00Broken Clouds26°C7 mph, E74%10000m1010hPa68%
26-Jun-2024 18:00Light Rain25°C7 mph, E73%10000m1009hPa79%
26-Jun-2024 21:00Light Rain21°C4 mph, NE75%10000m1009hPa85%
27-Jun-2024 00:00Broken Clouds20°C2 mph, E55%10000m1009hPa88%
27-Jun-2024 03:00Few Clouds19°C2 mph, SE22%10000m1008hPa88%
27-Jun-2024 06:00Light Rain22°C2 mph, S28%10000m1008hPa82%
27-Jun-2024 09:00Few Clouds27°C7 mph, SW22%10000m1007hPa65%
27-Jun-2024 12:00Moderate Rain28°C11 mph, W35%10000m1007hPa62%
27-Jun-2024 15:00Light Rain28°C11 mph, W3%10000m1008hPa57%
27-Jun-2024 18:00Scattered Clouds23°C7 mph, W25%10000m1008hPa75%
27-Jun-2024 21:00Broken Clouds20°C2 mph, SW57%10000m1009hPa86%
28-Jun-2024 00:00Light Rain18°C9 mph, W70%10000m1010hPa95%
28-Jun-2024 03:00Light Rain16°C11 mph, SW71%10000m1011hPa90%
28-Jun-2024 06:00Broken Clouds16°C13 mph, SW68%10000m1013hPa85%
28-Jun-2024 09:00Scattered Clouds19°C16 mph, SW35%10000m1014hPa63%
28-Jun-2024 12:00Broken Clouds20°C16 mph, W67%10000m1016hPa59%
28-Jun-2024 15:00Overcast Clouds20°C13 mph, W98%10000m1017hPa61%
28-Jun-2024 18:00Overcast Clouds18°C9 mph, W85%10000m1019hPa68%
28-Jun-2024 21:00Clear Sky13°C2 mph, N1%10000m1020hPa86%
29-Jun-2024 00:00Clear Sky12°C2 mph, SE5%10000m1020hPa90%
29-Jun-2024 03:00Few Clouds11°C4 mph, SE15%10000m1019hPa91%
29-Jun-2024 06:00Scattered Clouds16°C4 mph, SE26%10000m1018hPa76%
29-Jun-2024 09:00Clear Sky21°C7 mph, SE8%10000m1016hPa65%
29-Jun-2024 12:00Scattered Clouds25°C7 mph, SE35%10000m1013hPa49%
29-Jun-2024 15:00Overcast Clouds25°C7 mph, SE100%10000m1010hPa54%
29-Jun-2024 18:00Light Rain22°C7 mph, E85%10000m1007hPa81%
29-Jun-2024 21:00Moderate Rain19°C9 mph, E91%9200m1004hPa94%
30-Jun-2024 00:00Light Rain19°C13 mph, S96%8299m1003hPa91%
30-Jun-2024 03:00Light Rain18°C11 mph, S100%10000m1002hPa94%
30-Jun-2024 06:00Overcast Clouds19°C13 mph, SW99%10000m1002hPa89%
30-Jun-2024 09:00Light Rain17°C18 mph, W99%10000m1003hPa95%
30-Jun-2024 12:00Light Rain14°C13 mph, W99%10000m1007hPa90%
30-Jun-2024 15:00Overcast Clouds14°C13 mph, SW98%10000m1008hPa85%
30-Jun-2024 18:00Overcast Clouds16°C11 mph, SW96%10000m1007hPa83%
30-Jun-2024 21:00Overcast Clouds15°C9 mph, S91%10000m1007hPa83%